sensor_id;sensor_type;location;lat;lon;timestamp;P1;durP1;ratioP1;P2;durP2;ratioP2
12798;SDS011;19250;42.646;26.980;2023-02-03T00:00:01;5.90;;;4.03;;
12798;SDS011;19250;42.646;26.980;2023-02-03T00:02:28;4.63;;;3.85;;
12798;SDS011;19250;42.646;26.980;2023-02-03T00:04:56;4.30;;;3.30;;
12798;SDS011;19250;42.646;26.980;2023-02-03T00:07:23;4.53;;;3.67;;
12798;SDS011;19250;42.646;26.980;2023-02-03T00:09:52;3.70;;;3.10;;
12798;SDS011;19250;42.646;26.980;2023-02-03T00:12:20;4.72;;;3.00;;
12798;SDS011;19250;42.646;26.980;2023-02-03T00:14:47;4.43;;;2.92;;
12798;SDS011;19250;42.646;26.980;2023-02-03T00:17:14;3.80;;;2.80;;
12798;SDS011;19250;42.646;26.980;2023-02-03T00:19:42;4.40;;;3.03;;
12798;SDS011;19250;42.646;26.980;2023-02-03T00:22:09;4.95;;;3.25;;
12798;SDS011;19250;42.646;26.980;2023-02-03T00:24:36;5.63;;;3.47;;
12798;SDS011;19250;42.646;26.980;2023-02-03T00:27:05;5.35;;;3.50;;
12798;SDS011;19250;42.646;26.980;2023-02-03T00:29:32;4.65;;;3.22;;
12798;SDS011;19250;42.646;26.980;2023-02-03T00:31:59;3.83;;;2.42;;
12798;SDS011;19250;42.646;26.980;2023-02-03T00:34:27;4.05;;;3.13;;
12798;SDS011;19250;42.646;26.980;2023-02-03T00:36:55;3.53;;;3.00;;
12798;SDS011;19250;42.646;26.980;2023-02-03T00:39:22;4.13;;;3.35;;
12798;SDS011;19250;42.646;26.980;2023-02-03T00:41:50;4.53;;;3.63;;
12798;SDS011;19250;42.646;26.980;2023-02-03T00:44:18;6.43;;;3.72;;
12798;SDS011;19250;42.646;26.980;2023-02-03T00:46:46;4.68;;;3.67;;
12798;SDS011;19250;42.646;26.980;2023-02-03T00:49:13;5.70;;;4.70;;
12798;SDS011;19250;42.646;26.980;2023-02-03T00:51:40;4.95;;;4.35;;
12798;SDS011;19250;42.646;26.980;2023-02-03T00:54:07;6.13;;;4.50;;
12798;SDS011;19250;42.646;26.980;2023-02-03T00:56:35;8.35;;;4.78;;
12798;SDS011;19250;42.646;26.980;2023-02-03T00:59:02;6.47;;;4.97;;
12798;SDS011;19250;42.646;26.980;2023-02-03T01:01:31;6.60;;;5.20;;
12798;SDS011;19250;42.646;26.980;2023-02-03T01:03:58;7.60;;;5.15;;
12798;SDS011;19250;42.646;26.980;2023-02-03T01:06:25;6.00;;;5.00;;
12798;SDS011;19250;42.646;26.980;2023-02-03T01:08:53;6.80;;;4.95;;
12798;SDS011;19250;42.646;26.980;2023-02-03T01:11:21;8.45;;;6.30;;
12798;SDS011;19250;42.646;26.980;2023-02-03T01:13:52;9.52;;;7.05;;
12798;SDS011;19250;42.646;26.980;2023-02-03T01:16:20;11.70;;;7.10;;
12798;SDS011;19250;42.646;26.980;2023-02-03T01:18:50;9.98;;;6.15;;
12798;SDS011;19250;42.646;26.980;2023-02-03T01:21:19;6.43;;;5.45;;
12798;SDS011;19250;42.646;26.980;2023-02-03T01:23:48;8.10;;;5.82;;
12798;SDS011;19250;42.646;26.980;2023-02-03T01:26:17;9.23;;;5.80;;
12798;SDS011;19250;42.646;26.980;2023-02-03T01:28:49;8.70;;;5.90;;
12798;SDS011;19250;42.646;26.980;2023-02-03T01:31:18;9.50;;;7.22;;
12798;SDS011;19250;42.646;26.980;2023-02-03T01:33:46;9.15;;;6.93;;
12798;SDS011;19250;42.646;26.980;2023-02-03T01:36:15;7.25;;;5.35;;
12798;SDS011;19250;42.646;26.980;2023-02-03T01:38:44;7.32;;;5.28;;
12798;SDS011;19250;42.646;26.980;2023-02-03T01:41:12;9.32;;;5.88;;
12798;SDS011;19250;42.646;26.980;2023-02-03T01:43:40;12.85;;;7.43;;
12798;SDS011;19250;42.646;26.980;2023-02-03T01:46:14;14.93;;;8.45;;
12798;SDS011;19250;42.646;26.980;2023-02-03T01:48:50;14.25;;;9.10;;
12798;SDS011;19250;42.646;26.980;2023-02-03T01:51:20;10.82;;;7.50;;
12798;SDS011;19250;42.646;26.980;2023-02-03T01:53:48;8.10;;;6.07;;
12798;SDS011;19250;42.646;26.980;2023-02-03T01:56:18;5.93;;;5.13;;
12798;SDS011;19250;42.646;26.980;2023-02-03T01:58:46;6.57;;;5.20;;
12798;SDS011;19250;42.646;26.980;2023-02-03T02:01:15;6.00;;;4.80;;
12798;SDS011;19250;42.646;26.980;2023-02-03T02:03:43;7.22;;;5.80;;
12798;SDS011;19250;42.646;26.980;2023-02-03T02:06:14;8.63;;;6.63;;
12798;SDS011;19250;42.646;26.980;2023-02-03T02:08:43;8.85;;;5.82;;
12798;SDS011;19250;42.646;26.980;2023-02-03T02:11:13;6.00;;;4.57;;
12798;SDS011;19250;42.646;26.980;2023-02-03T02:13:42;6.85;;;5.32;;
12798;SDS011;19250;42.646;26.980;2023-02-03T02:16:14;7.60;;;5.60;;
12798;SDS011;19250;42.646;26.980;2023-02-03T02:18:50;6.65;;;5.10;;
12798;SDS011;19250;42.646;26.980;2023-02-03T02:21:34;9.60;;;7.33;;
12798;SDS011;19250;42.646;26.980;2023-02-03T02:24:24;12.55;;;9.57;;
12798;SDS011;19250;42.646;26.980;2023-02-03T02:27:15;15.18;;;10.48;;
12798;SDS011;19250;42.646;26.980;2023-02-03T02:33:02;7.47;;;5.53;;
12798;SDS011;19250;42.646;26.980;2023-02-03T02:41:15;8.07;;;6.67;;
12798;SDS011;19250;42.646;26.980;2023-02-03T02:43:47;7.67;;;5.57;;
12798;SDS011;19250;42.646;26.980;2023-02-03T02:46:23;5.60;;;4.30;;
12798;SDS011;19250;42.646;26.980;2023-02-03T02:48:56;4.47;;;3.83;;
12798;SDS011;19250;42.646;26.980;2023-02-03T02:51:29;5.03;;;3.83;;
12798;SDS011;19250;42.646;26.980;2023-02-03T02:53:59;5.85;;;4.53;;
12798;SDS011;19250;42.646;26.980;2023-02-03T02:56:29;7.28;;;5.18;;
12798;SDS011;19250;42.646;26.980;2023-02-03T02:58:58;7.32;;;5.38;;
12798;SDS011;19250;42.646;26.980;2023-02-03T03:01:28;6.97;;;5.95;;
12798;SDS011;19250;42.646;26.980;2023-02-03T03:03:57;9.25;;;6.93;;
12798;SDS011;19250;42.646;26.980;2023-02-03T03:06:29;6.25;;;4.85;;
12798;SDS011;19250;42.646;26.980;2023-02-03T03:09:01;4.97;;;3.55;;
12798;SDS011;19250;42.646;26.980;2023-02-03T03:11:32;7.63;;;5.13;;
12798;SDS011;19250;42.646;26.980;2023-02-03T03:14:02;8.87;;;6.13;;
12798;SDS011;19250;42.646;26.980;2023-02-03T03:16:32;8.57;;;5.72;;
12798;SDS011;19250;42.646;26.980;2023-02-03T03:19:04;7.55;;;5.93;;
12798;SDS011;19250;42.646;26.980;2023-02-03T03:21:35;8.57;;;5.72;;
12798;SDS011;19250;42.646;26.980;2023-02-03T03:24:08;7.47;;;4.90;;
12798;SDS011;19250;42.646;26.980;2023-02-03T03:26:41;9.23;;;5.97;;
12798;SDS011;19250;42.646;26.980;2023-02-03T03:29:14;6.05;;;4.88;;
12798;SDS011;19250;42.646;26.980;2023-02-03T03:31:44;19.05;;;13.65;;
12798;SDS011;19250;42.646;26.980;2023-02-03T03:34:14;11.30;;;10.13;;
12798;SDS011;19250;42.646;26.980;2023-02-03T03:36:43;5.68;;;4.38;;
12798;SDS011;19250;42.646;26.980;2023-02-03T03:39:14;8.23;;;5.88;;
12798;SDS011;19250;42.646;26.980;2023-02-03T03:41:51;6.57;;;4.90;;
12798;SDS011;19250;42.646;26.980;2023-02-03T03:44:24;7.85;;;5.57;;
12798;SDS011;19250;42.646;26.980;2023-02-03T03:46:58;7.70;;;5.65;;
12798;SDS011;19250;42.646;26.980;2023-02-03T03:49:34;8.77;;;6.60;;
12798;SDS011;19250;42.646;26.980;2023-02-03T03:52:04;8.30;;;5.72;;
12798;SDS011;19250;42.646;26.980;2023-02-03T03:54:34;8.13;;;5.32;;
12798;SDS011;19250;42.646;26.980;2023-02-03T03:57:04;7.45;;;5.47;;
12798;SDS011;19250;42.646;26.980;2023-02-03T03:59:39;6.30;;;4.78;;
12798;SDS011;19250;42.646;26.980;2023-02-03T04:02:09;6.30;;;5.20;;
12798;SDS011;19250;42.646;26.980;2023-02-03T04:04:40;6.63;;;5.85;;
12798;SDS011;19250;42.646;26.980;2023-02-03T04:07:09;8.10;;;5.18;;
12798;SDS011;19250;42.646;26.980;2023-02-03T04:09:37;7.32;;;4.35;;
12798;SDS011;19250;42.646;26.980;2023-02-03T04:12:08;7.57;;;4.63;;
12798;SDS011;19250;42.646;26.980;2023-02-03T04:14:42;5.85;;;4.38;;
12798;SDS011;19250;42.646;26.980;2023-02-03T04:17:09;6.33;;;4.20;;
12798;SDS011;19250;42.646;26.980;2023-02-03T04:19:36;20.30;;;12.50;;
12798;SDS011;19250;42.646;26.980;2023-02-03T04:22:05;16.63;;;11.45;;
12798;SDS011;19250;42.646;26.980;2023-02-03T04:24:32;66.10;;;42.42;;
12798;SDS011;19250;42.646;26.980;2023-02-03T04:26:59;22.42;;;13.27;;
12798;SDS011;19250;42.646;26.980;2023-02-03T04:29:27;12.35;;;9.43;;
12798;SDS011;19250;42.646;26.980;2023-02-03T04:31:54;15.00;;;11.68;;
12798;SDS011;19250;42.646;26.980;2023-02-03T04:34:21;13.25;;;9.85;;
12798;SDS011;19250;42.646;26.980;2023-02-03T04:36:48;8.13;;;7.18;;
12798;SDS011;19250;42.646;26.980;2023-02-03T04:39:17;6.65;;;5.90;;
12798;SDS011;19250;42.646;26.980;2023-02-03T04:41:44;7.85;;;6.32;;
12798;SDS011;19250;42.646;26.980;2023-02-03T04:44:11;7.35;;;5.35;;
12798;SDS011;19250;42.646;26.980;2023-02-03T04:46:39;8.00;;;6.85;;
12798;SDS011;19250;42.646;26.980;2023-02-03T04:49:06;5.65;;;4.40;;
12798;SDS011;19250;42.646;26.980;2023-02-03T04:51:35;5.47;;;4.30;;
12798;SDS011;19250;42.646;26.980;2023-02-03T04:54:03;5.57;;;4.05;;
12798;SDS011;19250;42.646;26.980;2023-02-03T04:56:31;6.60;;;4.65;;
12798;SDS011;19250;42.646;26.980;2023-02-03T04:58:59;7.97;;;5.05;;
12798;SDS011;19250;42.646;26.980;2023-02-03T05:01:26;7.93;;;5.72;;
12798;SDS011;19250;42.646;26.980;2023-02-03T05:03:53;7.05;;;5.47;;
12798;SDS011;19250;42.646;26.980;2023-02-03T05:06:21;9.18;;;6.90;;
12798;SDS011;19250;42.646;26.980;2023-02-03T05:08:50;10.07;;;8.15;;
12798;SDS011;19250;42.646;26.980;2023-02-03T05:11:17;10.90;;;8.50;;
12798;SDS011;19250;42.646;26.980;2023-02-03T05:13:46;11.40;;;8.75;;
12798;SDS011;19250;42.646;26.980;2023-02-03T05:16:13;10.50;;;8.50;;
12798;SDS011;19250;42.646;26.980;2023-02-03T05:18:41;9.70;;;8.20;;
12798;SDS011;19250;42.646;26.980;2023-02-03T05:21:08;10.02;;;7.10;;
12798;SDS011;19250;42.646;26.980;2023-02-03T05:23:35;10.27;;;6.10;;
12798;SDS011;19250;42.646;26.980;2023-02-03T05:26:02;10.73;;;6.05;;
12798;SDS011;19250;42.646;26.980;2023-02-03T05:28:30;12.23;;;7.37;;
12798;SDS011;19250;42.646;26.980;2023-02-03T05:30:59;12.48;;;8.43;;
12798;SDS011;19250;42.646;26.980;2023-02-03T05:33:27;9.95;;;7.57;;
12798;SDS011;19250;42.646;26.980;2023-02-03T05:35:55;8.85;;;6.93;;
12798;SDS011;19250;42.646;26.980;2023-02-03T05:38:22;9.52;;;7.40;;
12798;SDS011;19250;42.646;26.980;2023-02-03T05:40:50;14.23;;;9.98;;
12798;SDS011;19250;42.646;26.980;2023-02-03T05:43:35;8.93;;;6.55;;
12798;SDS011;19250;42.646;26.980;2023-02-03T05:46:05;10.60;;;8.95;;
12798;SDS011;19250;42.646;26.980;2023-02-03T05:48:32;13.60;;;10.85;;
12798;SDS011;19250;42.646;26.980;2023-02-03T05:51:00;14.27;;;10.40;;
12798;SDS011;19250;42.646;26.980;2023-02-03T05:53:27;13.45;;;8.88;;
12798;SDS011;19250;42.646;26.980;2023-02-03T05:55:54;11.38;;;7.05;;
12798;SDS011;19250;42.646;26.980;2023-02-03T05:58:22;11.27;;;7.53;;
12798;SDS011;19250;42.646;26.980;2023-02-03T06:00:49;10.95;;;8.98;;
12798;SDS011;19250;42.646;26.980;2023-02-03T06:03:18;11.77;;;10.27;;
12798;SDS011;19250;42.646;26.980;2023-02-03T06:05:46;11.60;;;9.47;;
12798;SDS011;19250;42.646;26.980;2023-02-03T06:08:13;10.90;;;9.15;;
12798;SDS011;19250;42.646;26.980;2023-02-03T06:10:40;13.20;;;10.75;;
12798;SDS011;19250;42.646;26.980;2023-02-03T06:13:08;13.90;;;10.27;;
12798;SDS011;19250;42.646;26.980;2023-02-03T06:15:38;10.35;;;8.35;;
12798;SDS011;19250;42.646;26.980;2023-02-03T06:18:06;11.25;;;8.85;;
12798;SDS011;19250;42.646;26.980;2023-02-03T06:20:35;12.03;;;9.53;;
12798;SDS011;19250;42.646;26.980;2023-02-03T06:23:02;12.95;;;9.63;;
12798;SDS011;19250;42.646;26.980;2023-02-03T06:25:29;14.18;;;10.75;;
12798;SDS011;19250;42.646;26.980;2023-02-03T06:27:57;16.00;;;11.70;;
12798;SDS011;19250;42.646;26.980;2023-02-03T06:30:24;9.85;;;8.40;;
12798;SDS011;19250;42.646;26.980;2023-02-03T06:32:52;9.40;;;8.37;;
12798;SDS011;19250;42.646;26.980;2023-02-03T06:35:19;11.85;;;8.77;;
12798;SDS011;19250;42.646;26.980;2023-02-03T06:37:47;11.40;;;9.60;;
12798;SDS011;19250;42.646;26.980;2023-02-03T06:40:15;9.05;;;6.97;;
12798;SDS011;19250;42.646;26.980;2023-02-03T06:42:43;10.33;;;9.23;;
12798;SDS011;19250;42.646;26.980;2023-02-03T06:45:11;9.63;;;7.43;;
12798;SDS011;19250;42.646;26.980;2023-02-03T06:47:39;9.53;;;7.27;;
12798;SDS011;19250;42.646;26.980;2023-02-03T06:50:06;8.18;;;5.70;;
12798;SDS011;19250;42.646;26.980;2023-02-03T06:52:35;7.20;;;5.68;;
12798;SDS011;19250;42.646;26.980;2023-02-03T06:55:04;8.60;;;6.65;;
12798;SDS011;19250;42.646;26.980;2023-02-03T06:57:32;9.48;;;7.10;;
12798;SDS011;19250;42.646;26.980;2023-02-03T06:59:59;9.52;;;7.10;;
12798;SDS011;19250;42.646;26.980;2023-02-03T07:02:26;8.90;;;7.03;;
12798;SDS011;19250;42.646;26.980;2023-02-03T07:04:53;8.50;;;6.75;;
12798;SDS011;19250;42.646;26.980;2023-02-03T07:07:22;8.40;;;6.47;;
12798;SDS011;19250;42.646;26.980;2023-02-03T07:09:49;10.35;;;6.70;;
12798;SDS011;19250;42.646;26.980;2023-02-03T07:12:17;7.78;;;6.47;;
12798;SDS011;19250;42.646;26.980;2023-02-03T07:14:45;6.60;;;5.82;;
12798;SDS011;19250;42.646;26.980;2023-02-03T07:17:12;8.85;;;7.65;;
12798;SDS011;19250;42.646;26.980;2023-02-03T07:19:40;10.37;;;8.07;;
12798;SDS011;19250;42.646;26.980;2023-02-03T07:22:08;8.65;;;7.00;;
12798;SDS011;19250;42.646;26.980;2023-02-03T07:24:36;9.90;;;6.65;;
12798;SDS011;19250;42.646;26.980;2023-02-03T07:27:03;13.35;;;9.57;;
12798;SDS011;19250;42.646;26.980;2023-02-03T07:29:32;13.35;;;9.70;;
12798;SDS011;19250;42.646;26.980;2023-02-03T07:31:59;11.98;;;8.13;;
12798;SDS011;19250;42.646;26.980;2023-02-03T07:34:26;14.30;;;10.05;;
12798;SDS011;19250;42.646;26.980;2023-02-03T07:36:53;77.28;;;40.30;;
12798;SDS011;19250;42.646;26.980;2023-02-03T07:39:21;17.55;;;14.70;;
12798;SDS011;19250;42.646;26.980;2023-02-03T07:41:48;14.40;;;13.00;;
12798;SDS011;19250;42.646;26.980;2023-02-03T07:44:15;9.75;;;7.72;;
12798;SDS011;19250;42.646;26.980;2023-02-03T07:46:44;5.95;;;5.05;;
12798;SDS011;19250;42.646;26.980;2023-02-03T07:49:11;5.65;;;4.18;;
12798;SDS011;19250;42.646;26.980;2023-02-03T07:51:39;7.85;;;7.07;;
12798;SDS011;19250;42.646;26.980;2023-02-03T07:54:06;6.43;;;5.53;;
12798;SDS011;19250;42.646;26.980;2023-02-03T07:56:33;6.88;;;5.35;;
12798;SDS011;19250;42.646;26.980;2023-02-03T07:59:01;7.68;;;5.10;;
12798;SDS011;19250;42.646;26.980;2023-02-03T08:01:28;12.30;;;8.93;;
12798;SDS011;19250;42.646;26.980;2023-02-03T08:03:57;9.63;;;6.53;;
12798;SDS011;19250;42.646;26.980;2023-02-03T08:06:26;6.78;;;4.80;;
12798;SDS011;19250;42.646;26.980;2023-02-03T08:08:54;7.47;;;4.63;;
12798;SDS011;19250;42.646;26.980;2023-02-03T08:11:22;7.38;;;6.15;;
12798;SDS011;19250;42.646;26.980;2023-02-03T08:13:49;10.45;;;7.32;;
12798;SDS011;19250;42.646;26.980;2023-02-03T08:16:16;9.93;;;7.00;;
12798;SDS011;19250;42.646;26.980;2023-02-03T08:18:43;9.52;;;7.47;;
12798;SDS011;19250;42.646;26.980;2023-02-03T08:21:12;8.65;;;5.35;;
12798;SDS011;19250;42.646;26.980;2023-02-03T08:23:39;6.28;;;4.40;;
12798;SDS011;19250;42.646;26.980;2023-02-03T08:26:06;6.10;;;5.00;;
12798;SDS011;19250;42.646;26.980;2023-02-03T08:28:33;6.33;;;4.87;;
12798;SDS011;19250;42.646;26.980;2023-02-03T08:31:01;6.82;;;5.10;;
12798;SDS011;19250;42.646;26.980;2023-02-03T08:33:34;8.05;;;5.30;;
12798;SDS011;19250;42.646;26.980;2023-02-03T08:36:01;5.35;;;3.78;;
12798;SDS011;19250;42.646;26.980;2023-02-03T08:38:31;6.25;;;4.47;;
12798;SDS011;19250;42.646;26.980;2023-02-03T08:40:58;5.05;;;4.05;;
12798;SDS011;19250;42.646;26.980;2023-02-03T08:43:25;6.20;;;4.80;;
12798;SDS011;19250;42.646;26.980;2023-02-03T08:45:53;6.97;;;6.18;;
12798;SDS011;19250;42.646;26.980;2023-02-03T08:48:20;8.02;;;5.80;;
12798;SDS011;19250;42.646;26.980;2023-02-03T08:50:47;5.22;;;4.28;;
12798;SDS011;19250;42.646;26.980;2023-02-03T08:53:17;10.18;;;7.90;;
12798;SDS011;19250;42.646;26.980;2023-02-03T08:55:45;11.37;;;7.43;;
12798;SDS011;19250;42.646;26.980;2023-02-03T08:58:13;4.80;;;3.60;;
12798;SDS011;19250;42.646;26.980;2023-02-03T09:00:40;5.22;;;3.72;;
12798;SDS011;19250;42.646;26.980;2023-02-03T09:03:09;5.78;;;4.10;;
12798;SDS011;19250;42.646;26.980;2023-02-03T09:05:36;5.85;;;4.47;;
12798;SDS011;19250;42.646;26.980;2023-02-03T09:08:04;5.60;;;5.10;;
12798;SDS011;19250;42.646;26.980;2023-02-03T09:10:31;6.75;;;5.97;;
12798;SDS011;19250;42.646;26.980;2023-02-03T09:13:00;8.65;;;6.35;;
12798;SDS011;19250;42.646;26.980;2023-02-03T09:15:27;8.77;;;6.50;;
12798;SDS011;19250;42.646;26.980;2023-02-03T09:17:54;8.20;;;5.80;;
12798;SDS011;19250;42.646;26.980;2023-02-03T09:20:22;10.23;;;7.35;;
12798;SDS011;19250;42.646;26.980;2023-02-03T09:22:50;5.28;;;4.13;;
12798;SDS011;19250;42.646;26.980;2023-02-03T09:25:19;9.23;;;7.10;;
12798;SDS011;19250;42.646;26.980;2023-02-03T09:27:46;6.00;;;5.03;;
12798;SDS011;19250;42.646;26.980;2023-02-03T09:30:15;6.70;;;5.20;;
12798;SDS011;19250;42.646;26.980;2023-02-03T09:32:43;7.47;;;4.95;;
12798;SDS011;19250;42.646;26.980;2023-02-03T09:35:13;12.93;;;9.43;;
12798;SDS011;19250;42.646;26.980;2023-02-03T09:37:41;7.03;;;5.25;;
12798;SDS011;19250;42.646;26.980;2023-02-03T09:40:09;6.43;;;4.70;;
12798;SDS011;19250;42.646;26.980;2023-02-03T09:42:54;7.40;;;5.57;;
12798;SDS011;19250;42.646;26.980;2023-02-03T09:45:31;9.83;;;6.23;;
12798;SDS011;19250;42.646;26.980;2023-02-03T09:47:59;10.32;;;8.07;;
12798;SDS011;19250;42.646;26.980;2023-02-03T09:50:31;8.63;;;6.32;;
12798;SDS011;19250;42.646;26.980;2023-02-03T09:53:02;9.83;;;7.27;;
12798;SDS011;19250;42.646;26.980;2023-02-03T09:55:34;19.10;;;17.08;;
12798;SDS011;19250;42.646;26.980;2023-02-03T09:58:07;16.77;;;13.18;;
12798;SDS011;19250;42.646;26.980;2023-02-03T10:00:40;15.10;;;12.23;;
12798;SDS011;19250;42.646;26.980;2023-02-03T10:03:12;21.15;;;15.45;;
12798;SDS011;19250;42.646;26.980;2023-02-03T10:05:50;21.67;;;17.33;;
12798;SDS011;19250;42.646;26.980;2023-02-03T10:08:33;17.92;;;14.77;;
12798;SDS011;19250;42.646;26.980;2023-02-03T10:11:14;15.00;;;12.17;;
12798;SDS011;19250;42.646;26.980;2023-02-03T10:13:53;14.57;;;11.93;;
12798;SDS011;19250;42.646;26.980;2023-02-03T10:16:47;10.13;;;7.77;;
12798;SDS011;19250;42.646;26.980;2023-02-03T10:19:26;9.80;;;8.43;;
12798;SDS011;19250;42.646;26.980;2023-02-03T10:22:02;8.88;;;8.00;;
12798;SDS011;19250;42.646;26.980;2023-02-03T10:24:33;7.25;;;6.55;;
12798;SDS011;19250;42.646;26.980;2023-02-03T10:27:07;7.23;;;6.03;;
12798;SDS011;19250;42.646;26.980;2023-02-03T10:29:41;6.22;;;5.20;;
12798;SDS011;19250;42.646;26.980;2023-02-03T10:32:10;6.50;;;5.63;;
12798;SDS011;19250;42.646;26.980;2023-02-03T10:34:38;6.45;;;5.53;;
12798;SDS011;19250;42.646;26.980;2023-02-03T10:37:11;5.07;;;4.57;;
12798;SDS011;19250;42.646;26.980;2023-02-03T10:39:49;8.48;;;6.47;;
12798;SDS011;19250;42.646;26.980;2023-02-03T10:42:17;7.15;;;5.43;;
12798;SDS011;19250;42.646;26.980;2023-02-03T10:44:48;6.25;;;5.30;;
12798;SDS011;19250;42.646;26.980;2023-02-03T10:47:22;7.22;;;6.03;;
12798;SDS011;19250;42.646;26.980;2023-02-03T10:49:52;7.25;;;5.68;;
12798;SDS011;19250;42.646;26.980;2023-02-03T10:52:24;6.18;;;5.45;;
12798;SDS011;19250;42.646;26.980;2023-02-03T10:54:53;8.23;;;5.63;;
12798;SDS011;19250;42.646;26.980;2023-02-03T10:57:23;7.93;;;5.95;;
12798;SDS011;19250;42.646;26.980;2023-02-03T10:59:53;7.73;;;6.93;;
12798;SDS011;19250;42.646;26.980;2023-02-03T11:02:36;14.85;;;13.18;;
12798;SDS011;19250;42.646;26.980;2023-02-03T11:05:10;31.13;;;22.08;;
12798;SDS011;19250;42.646;26.980;2023-02-03T11:07:46;17.73;;;15.85;;
12798;SDS011;19250;42.646;26.980;2023-02-03T11:10:29;7.72;;;6.85;;
12798;SDS011;19250;42.646;26.980;2023-02-03T11:13:19;8.38;;;6.13;;
12798;SDS011;19250;42.646;26.980;2023-02-03T11:15:50;8.25;;;6.30;;
12798;SDS011;19250;42.646;26.980;2023-02-03T11:18:30;5.80;;;4.50;;
12798;SDS011;19250;42.646;26.980;2023-02-03T11:21:05;6.22;;;5.10;;
12798;SDS011;19250;42.646;26.980;2023-02-03T11:23:33;13.88;;;10.75;;
12798;SDS011;19250;42.646;26.980;2023-02-03T11:26:08;8.10;;;6.18;;
12798;SDS011;19250;42.646;26.980;2023-02-03T11:28:40;9.23;;;6.97;;
12798;SDS011;19250;42.646;26.980;2023-02-03T11:31:17;7.13;;;5.25;;
12798;SDS011;19250;42.646;26.980;2023-02-03T11:33:49;7.95;;;7.15;;
12798;SDS011;19250;42.646;26.980;2023-02-03T11:36:19;7.53;;;5.22;;
12798;SDS011;19250;42.646;26.980;2023-02-03T11:38:46;5.32;;;4.82;;
12798;SDS011;19250;42.646;26.980;2023-02-03T11:41:15;7.07;;;6.22;;
12798;SDS011;19250;42.646;26.980;2023-02-03T11:43:44;7.22;;;5.82;;
12798;SDS011;19250;42.646;26.980;2023-02-03T11:46:12;6.47;;;5.70;;
12798;SDS011;19250;42.646;26.980;2023-02-03T11:48:44;7.03;;;6.05;;
12798;SDS011;19250;42.646;26.980;2023-02-03T11:51:26;8.70;;;6.70;;
12798;SDS011;19250;42.646;26.980;2023-02-03T11:54:02;8.77;;;7.78;;
12798;SDS011;19250;42.646;26.980;2023-02-03T11:56:51;11.00;;;6.90;;
12798;SDS011;19250;42.646;26.980;2023-02-03T12:02:38;11.73;;;10.20;;
12798;SDS011;19250;42.646;26.980;2023-02-03T12:05:34;12.20;;;10.27;;
12798;SDS011;19250;42.646;26.980;2023-02-03T12:08:20;11.43;;;10.02;;
12798;SDS011;19250;42.646;26.980;2023-02-03T12:10:59;10.18;;;8.02;;
12798;SDS011;19250;42.646;26.980;2023-02-03T12:13:42;8.90;;;7.35;;
12798;SDS011;19250;42.646;26.980;2023-02-03T12:16:21;13.60;;;12.20;;
12798;SDS011;19250;42.646;26.980;2023-02-03T12:19:13;12.75;;;10.32;;
12798;SDS011;19250;42.646;26.980;2023-02-03T12:21:50;11.23;;;9.98;;
12798;SDS011;19250;42.646;26.980;2023-02-03T12:24:24;8.60;;;7.18;;
12798;SDS011;19250;42.646;26.980;2023-02-03T12:27:02;7.87;;;6.53;;
12798;SDS011;19250;42.646;26.980;2023-02-03T12:29:40;8.63;;;7.32;;
12798;SDS011;19250;42.646;26.980;2023-02-03T12:32:12;10.13;;;8.57;;
12798;SDS011;19250;42.646;26.980;2023-02-03T12:34:48;22.15;;;16.05;;
12798;SDS011;19250;42.646;26.980;2023-02-03T12:37:22;8.27;;;6.97;;
12798;SDS011;19250;42.646;26.980;2023-02-03T12:39:54;21.17;;;14.15;;
12798;SDS011;19250;42.646;26.980;2023-02-03T12:42:26;17.02;;;11.77;;
12798;SDS011;19250;42.646;26.980;2023-02-03T12:44:58;19.27;;;15.30;;
12798;SDS011;19250;42.646;26.980;2023-02-03T12:47:31;9.82;;;7.38;;
12798;SDS011;19250;42.646;26.980;2023-02-03T12:50:02;8.03;;;6.13;;
12798;SDS011;19250;42.646;26.980;2023-02-03T12:52:35;9.25;;;8.10;;
12798;SDS011;19250;42.646;26.980;2023-02-03T12:55:12;8.90;;;6.80;;
12798;SDS011;19250;42.646;26.980;2023-02-03T12:57:45;9.50;;;8.50;;
12798;SDS011;19250;42.646;26.980;2023-02-03T13:00:20;8.57;;;6.90;;
12798;SDS011;19250;42.646;26.980;2023-02-03T13:02:59;10.00;;;8.05;;
12798;SDS011;19250;42.646;26.980;2023-02-03T13:05:36;12.25;;;10.95;;
12798;SDS011;19250;42.646;26.980;2023-02-03T13:08:12;27.02;;;22.48;;
12798;SDS011;19250;42.646;26.980;2023-02-03T13:10:45;12.68;;;9.82;;
12798;SDS011;19250;42.646;26.980;2023-02-03T13:13:17;13.45;;;12.05;;
12798;SDS011;19250;42.646;26.980;2023-02-03T13:15:50;12.68;;;11.30;;
12798;SDS011;19250;42.646;26.980;2023-02-03T13:18:23;11.52;;;10.32;;
12798;SDS011;19250;42.646;26.980;2023-02-03T13:20:53;14.80;;;11.85;;
12798;SDS011;19250;42.646;26.980;2023-02-03T13:23:22;10.57;;;8.20;;
12798;SDS011;19250;42.646;26.980;2023-02-03T13:25:58;17.60;;;12.97;;
12798;SDS011;19250;42.646;26.980;2023-02-03T13:28:39;18.88;;;14.13;;
12798;SDS011;19250;42.646;26.980;2023-02-03T13:31:20;16.45;;;11.15;;
12798;SDS011;19250;42.646;26.980;2023-02-03T13:37:10;19.30;;;13.70;;
12798;SDS011;19250;42.646;26.980;2023-02-03T13:40:05;12.20;;;10.73;;
12798;SDS011;19250;42.646;26.980;2023-02-03T13:42:43;16.92;;;15.10;;
12798;SDS011;19250;42.646;26.980;2023-02-03T13:45:23;13.35;;;9.70;;
12798;SDS011;19250;42.646;26.980;2023-02-03T13:47:53;11.27;;;9.48;;
12798;SDS011;19250;42.646;26.980;2023-02-03T13:50:23;15.43;;;11.02;;
12798;SDS011;19250;42.646;26.980;2023-02-03T13:52:55;9.60;;;8.05;;
12798;SDS011;19250;42.646;26.980;2023-02-03T13:55:32;8.45;;;7.43;;
12798;SDS011;19250;42.646;26.980;2023-02-03T13:58:02;10.37;;;9.37;;
12798;SDS011;19250;42.646;26.980;2023-02-03T14:09:23;16.70;;;12.70;;
12798;SDS011;19250;42.646;26.980;2023-02-03T14:18:01;20.33;;;14.93;;
12798;SDS011;19250;42.646;26.980;2023-02-03T14:20:50;19.08;;;16.25;;
12798;SDS011;19250;42.646;26.980;2023-02-03T14:26:29;19.35;;;15.65;;
12798;SDS011;19250;42.646;26.980;2023-02-03T14:29:03;9.07;;;7.22;;
12798;SDS011;19250;42.646;26.980;2023-02-03T14:31:33;10.88;;;9.20;;
12798;SDS011;19250;42.646;26.980;2023-02-03T14:34:29;13.20;;;9.80;;
12798;SDS011;19250;42.646;26.980;2023-02-03T14:37:08;12.82;;;10.95;;
12798;SDS011;19250;42.646;26.980;2023-02-03T14:42:56;6.80;;;5.63;;
12798;SDS011;19250;42.646;26.980;2023-02-03T14:48:54;9.68;;;7.63;;
12798;SDS011;19250;42.646;26.980;2023-02-03T14:51:47;10.90;;;7.97;;
12798;SDS011;19250;42.646;26.980;2023-02-03T14:54:33;13.38;;;9.15;;
12798;SDS011;19250;42.646;26.980;2023-02-03T14:57:15;15.55;;;11.10;;
12798;SDS011;19250;42.646;26.980;2023-02-03T14:59:53;28.43;;;17.77;;
12798;SDS011;19250;42.646;26.980;2023-02-03T15:02:26;35.13;;;20.70;;
12798;SDS011;19250;42.646;26.980;2023-02-03T15:07:56;38.40;;;24.50;;
12798;SDS011;19250;42.646;26.980;2023-02-03T15:10:28;13.75;;;10.32;;
12798;SDS011;19250;42.646;26.980;2023-02-03T15:13:21;16.38;;;11.48;;
12798;SDS011;19250;42.646;26.980;2023-02-03T15:15:51;24.33;;;19.55;;
12798;SDS011;19250;42.646;26.980;2023-02-03T15:18:20;23.10;;;17.93;;
12798;SDS011;19250;42.646;26.980;2023-02-03T15:20:53;20.80;;;16.63;;
12798;SDS011;19250;42.646;26.980;2023-02-03T15:23:23;29.08;;;24.05;;
12798;SDS011;19250;42.646;26.980;2023-02-03T15:25:52;54.83;;;43.75;;
12798;SDS011;19250;42.646;26.980;2023-02-03T15:28:21;29.73;;;20.65;;
12798;SDS011;19250;42.646;26.980;2023-02-03T15:30:50;47.45;;;32.63;;